createdAt,value
2018-09-21T00:01:41.686Z,7.00
2018-09-21T00:06:45.116Z,9.75
2018-09-21T00:11:48.617Z,8.40
2018-09-21T00:16:52.080Z,9.25
2018-09-21T00:21:55.588Z,7.75
2018-09-21T00:26:59.075Z,11.50
2018-09-21T00:32:02.548Z,10.00
2018-09-21T00:37:06.005Z,9.40
2018-09-21T00:42:09.475Z,8.00
2018-09-21T00:47:13.174Z,8.00
2018-09-21T00:52:16.620Z,10.00
2018-09-21T00:57:20.105Z,8.75
2018-09-21T01:02:23.565Z,10.80
2018-09-21T01:07:27.023Z,8.00
2018-09-21T01:12:30.506Z,8.00
2018-09-21T01:17:33.988Z,8.80
2018-09-21T01:22:37.423Z,8.00
2018-09-21T01:27:40.899Z,9.00
2018-09-21T01:32:44.383Z,7.00
2018-09-21T01:37:47.843Z,8.50
2018-09-21T01:42:51.319Z,8.50
2018-09-21T01:47:54.784Z,7.00
2018-09-21T01:52:58.232Z,8.00
2018-09-21T01:58:01.690Z,7.00
2018-09-21T02:03:05.143Z,9.20
2018-09-21T02:08:08.619Z,8.40
2018-09-21T02:13:12.125Z,7.00
2018-09-21T02:18:15.583Z,7.60
2018-09-21T02:23:19.039Z,9.00
2018-09-21T02:28:22.815Z,7.25
2018-09-21T02:33:26.299Z,8.00
2018-09-21T02:38:29.947Z,8.00
2018-09-21T02:43:33.413Z,8.50
2018-09-21T02:48:36.959Z,7.00
2018-09-21T02:53:40.394Z,7.25
2018-09-21T02:58:43.902Z,7.00
2018-09-21T03:03:47.362Z,8.25
2018-09-21T03:08:50.833Z,8.00
2018-09-21T03:13:54.293Z,7.50
2018-09-21T03:18:57.754Z,7.00
2018-09-21T03:24:01.323Z,7.00
2018-09-21T03:29:04.776Z,7.00
2018-09-21T03:34:08.219Z,7.00
2018-09-21T03:39:11.668Z,7.60
2018-09-21T03:44:15.102Z,7.00
2018-09-21T03:49:18.661Z,8.40
2018-09-21T03:54:22.128Z,11.75
2018-09-21T03:59:25.587Z,10.75
2018-09-21T04:04:29.058Z,11.00
2018-09-21T04:09:32.618Z,12.00
2018-09-21T04:14:36.223Z,13.80
2018-09-21T04:19:39.678Z,13.20
2018-09-21T04:24:43.150Z,14.25
2018-09-21T04:29:46.625Z,16.80
2018-09-21T04:34:50.847Z,16.50
2018-09-21T04:39:54.320Z,16.00
2018-09-21T04:44:57.777Z,15.80
2018-09-21T04:50:01.280Z,15.20
2018-09-21T04:55:04.946Z,15.40
2018-09-21T05:00:09.222Z,15.00
2018-09-21T05:05:12.679Z,14.40
2018-09-21T05:10:16.149Z,14.80
2018-09-21T05:15:19.628Z,16.20
2018-09-21T05:20:23.095Z,16.40
2018-09-21T05:25:26.572Z,16.60
2018-09-21T05:30:30.052Z,16.00
2018-09-21T05:35:33.612Z,15.00
2018-09-21T05:40:37.126Z,16.00
2018-09-21T05:45:40.628Z,15.50
2018-09-21T05:50:44.115Z,15.00
2018-09-21T05:55:47.600Z,16.50
2018-09-21T06:00:51.120Z,16.25
2018-09-21T06:05:54.574Z,16.80
2018-09-21T06:10:58.044Z,15.50
2018-09-21T06:16:01.496Z,16.40
2018-09-21T06:21:04.979Z,19.75
2018-09-21T06:26:08.440Z,14.25
2018-09-21T06:31:11.928Z,16.75
2018-09-21T06:36:15.372Z,16.00
2018-09-21T06:41:18.823Z,17.75
2018-09-21T06:46:22.279Z,15.00
2018-09-21T06:51:25.722Z,16.00
2018-09-21T06:56:29.175Z,16.00
2018-09-21T07:01:32.710Z,15.00
2018-09-21T07:06:36.256Z,17.50
2018-09-21T07:11:40.087Z,15.75
2018-09-21T07:16:43.610Z,14.80
2018-09-21T07:21:47.062Z,16.50
2018-09-21T07:26:50.515Z,15.00
2018-09-21T07:31:53.952Z,13.75
2018-09-21T07:36:57.406Z,14.50
2018-09-21T07:42:00.880Z,17.00
2018-09-21T07:47:04.310Z,15.00
2018-09-21T07:52:07.756Z,14.00
2018-09-21T07:57:11.197Z,16.50
2018-09-21T08:02:14.652Z,16.20
2018-09-21T08:07:18.139Z,15.00
2018-09-21T08:12:21.552Z,15.00
2018-09-21T08:17:24.987Z,14.25
2018-09-21T08:22:28.469Z,14.80
2018-09-21T08:27:31.911Z,14.50
2018-09-21T08:32:35.347Z,15.50
2018-09-21T08:37:39.046Z,13.75
2018-09-21T08:42:42.530Z,13.25
2018-09-21T08:47:45.969Z,13.75
2018-09-21T08:52:49.409Z,15.00
2018-09-21T08:57:52.887Z,16.00
2018-09-21T09:02:56.387Z,14.50
2018-09-21T09:07:59.796Z,16.00
2018-09-21T09:13:03.240Z,14.00
2018-09-21T09:18:06.706Z,14.40
2018-09-21T09:23:10.176Z,15.00
2018-09-21T09:28:13.628Z,15.00
2018-09-21T09:33:17.077Z,14.75
2018-09-21T09:38:20.530Z,16.00
2018-09-21T09:43:24.286Z,14.75
2018-09-21T09:48:27.781Z,15.60
2018-09-21T09:53:31.223Z,14.00
2018-09-21T09:58:34.671Z,14.50
2018-09-21T10:03:38.149Z,13.00
2018-09-21T10:08:41.590Z,12.50
2018-09-21T10:13:45.042Z,13.25
2018-09-21T10:18:48.516Z,13.50
2018-09-21T10:23:51.951Z,15.00
2018-09-21T10:28:55.534Z,12.75
2018-09-21T10:33:58.963Z,15.00
2018-09-21T10:39:02.458Z,13.75
2018-09-21T10:44:05.944Z,12.25
2018-09-21T10:49:09.391Z,14.00
2018-09-21T10:54:12.844Z,12.00
2018-09-21T10:59:16.282Z,14.00
2018-09-21T11:04:19.748Z,12.25
2018-09-21T11:09:23.213Z,13.25
2018-09-21T11:14:26.700Z,15.20
2018-09-21T11:19:30.168Z,13.50
2018-09-21T11:24:33.645Z,14.00
2018-09-21T11:29:37.099Z,13.20
2018-09-21T11:34:40.554Z,12.40
2018-09-21T11:39:44.045Z,12.00
2018-09-21T11:44:47.479Z,12.50
2018-09-21T11:49:50.927Z,13.00
2018-09-21T11:54:54.354Z,12.75
2018-09-21T11:59:57.808Z,12.00
2018-09-21T12:05:02.283Z,11.40
2018-09-21T12:10:05.824Z,13.50
2018-09-21T12:15:09.378Z,13.40
2018-09-21T12:20:12.916Z,13.00
2018-09-21T12:25:16.350Z,13.00
2018-09-21T12:30:19.992Z,12.80
2018-09-21T12:35:23.479Z,12.75
2018-09-21T12:40:26.956Z,12.75
2018-09-21T12:45:30.392Z,10.75
2018-09-21T12:50:33.855Z,9.50
2018-09-21T12:55:37.641Z,13.00
2018-09-21T13:00:46.351Z,12.50
2018-09-21T13:05:56.466Z,9.00
2018-09-21T13:11:00.278Z,11.75
2018-09-21T13:16:04.196Z,11.00
2018-09-21T13:21:08.263Z,12.00
2018-09-21T13:26:11.768Z,11.50
2018-09-21T13:31:15.234Z,13.00
2018-09-21T13:36:18.707Z,13.00
2018-09-21T13:41:22.156Z,11.20
2018-09-21T13:46:25.603Z,10.25
2018-09-21T13:51:29.071Z,12.00
2018-09-21T13:56:32.535Z,10.00
2018-09-21T14:01:35.966Z,9.50
2018-09-21T14:06:39.436Z,9.80
2018-09-21T14:11:42.907Z,10.80
2018-09-21T14:16:46.363Z,9.40
2018-09-21T14:21:49.819Z,9.75
2018-09-21T14:26:53.646Z,10.00
2018-09-21T14:31:57.110Z,11.00
2018-09-21T14:37:00.719Z,11.40
2018-09-21T14:42:05.094Z,9.40
2018-09-21T14:47:08.563Z,9.60
2018-09-21T14:52:12.088Z,8.40
2018-09-21T14:57:15.631Z,10.80
2018-09-21T15:02:19.186Z,9.00
2018-09-21T15:07:22.709Z,9.80
2018-09-21T15:12:26.271Z,10.00
2018-09-21T15:17:29.819Z,9.75
2018-09-21T15:22:33.283Z,9.00
2018-09-21T15:27:36.942Z,10.00
2018-09-21T15:32:40.503Z,10.00
2018-09-21T15:37:43.987Z,6.50
2018-09-21T15:42:47.479Z,8.60
2018-09-21T15:47:50.951Z,8.20
2018-09-21T15:52:54.449Z,8.80
2018-09-21T15:57:57.855Z,8.00
2018-09-21T16:03:01.323Z,7.75
2018-09-21T16:08:04.773Z,7.00
2018-09-21T16:13:08.222Z,6.00
2018-09-21T16:18:11.675Z,2.00
2018-09-21T16:23:15.069Z,2.75
2018-09-21T16:28:18.554Z,1.00
2018-09-21T16:33:22.039Z,1.00
2018-09-21T16:38:25.479Z,0.50
2018-09-21T16:43:28.939Z,1.00
2018-09-21T16:48:32.575Z,1.00
2018-09-21T16:53:36.017Z,1.00
2018-09-21T16:58:39.491Z,1.00
2018-09-21T17:03:42.903Z,1.00
2018-09-21T17:08:46.331Z,1.00
2018-09-21T17:13:49.750Z,1.00
2018-09-21T17:18:53.208Z,2.00
2018-09-21T17:23:57.205Z,2.00
2018-09-21T17:29:00.739Z,3.50
2018-09-21T17:34:05.152Z,4.00
2018-09-21T17:39:11.808Z,5.00
2018-09-21T17:44:16.209Z,4.00
2018-09-21T17:49:20.874Z,4.00
2018-09-21T17:54:25.249Z,2.00
2018-09-21T17:59:29.130Z,2.00
2018-09-21T18:04:33.574Z,2.00
2018-09-21T18:09:38.281Z,1.00
2018-09-21T18:14:42.315Z,2.00
2018-09-21T18:19:46.498Z,2.00
2018-09-21T18:24:50.624Z,2.00
2018-09-21T18:29:55.573Z,1.00
2018-09-21T18:34:59.076Z,1.50
2018-09-21T18:40:02.542Z,2.00
2018-09-21T18:45:06.246Z,2.40
2018-09-21T18:50:09.737Z,1.00
2018-09-21T18:55:13.657Z,2.00
2018-09-21T19:00:17.130Z,1.00
2018-09-21T19:05:20.619Z,1.00
2018-09-21T19:10:24.241Z,1.00
2018-09-21T19:15:27.729Z,2.00
2018-09-21T19:20:31.215Z,1.00
2018-09-21T19:25:34.755Z,2.00
2018-09-21T19:30:38.210Z,2.00
2018-09-21T19:35:41.690Z,2.75
2018-09-21T19:40:45.790Z,2.00
2018-09-21T19:45:49.348Z,2.00
2018-09-21T19:50:52.818Z,1.75
2018-09-21T19:55:56.337Z,1.00
2018-09-21T20:01:00.052Z,2.00
2018-09-21T20:06:03.532Z,1.25
2018-09-21T20:11:07.036Z,2.00
2018-09-21T20:16:10.486Z,2.00
2018-09-21T20:21:13.992Z,2.00
2018-09-21T20:26:17.426Z,2.00
2018-09-21T20:31:26.123Z,1.00
2018-09-21T20:36:29.575Z,2.00
2018-09-21T20:41:33.001Z,1.50
2018-09-21T20:46:36.448Z,1.00
2018-09-21T20:51:39.899Z,1.00
2018-09-21T20:56:43.334Z,1.00
2018-09-21T21:01:46.782Z,1.00
2018-09-21T21:06:50.229Z,1.50
2018-09-21T21:11:53.751Z,1.00
2018-09-21T21:16:57.217Z,1.00
2018-09-21T21:22:00.659Z,1.60
2018-09-21T21:27:04.121Z,1.00
2018-09-21T21:32:07.561Z,2.00
2018-09-21T21:37:11.298Z,1.50
2018-09-21T21:42:14.764Z,0.25
2018-09-21T21:47:18.206Z,1.00
2018-09-21T21:52:21.660Z,1.80
2018-09-21T21:57:25.136Z,2.00
2018-09-21T22:02:32.806Z,1.00
2018-09-21T22:07:37.638Z,2.00
2018-09-21T22:12:46.286Z,1.25
2018-09-21T22:17:50.459Z,1.00
2018-09-21T22:22:54.015Z,2.00
2018-09-21T22:27:57.481Z,1.50
2018-09-21T22:33:00.972Z,1.00
2018-09-21T22:38:04.552Z,1.00
2018-09-21T22:43:08.179Z,1.25
2018-09-21T22:48:11.662Z,1.00
2018-09-21T22:53:15.109Z,1.00
2018-09-21T22:58:18.633Z,1.40
2018-09-21T23:03:22.116Z,1.00
2018-09-21T23:08:25.647Z,1.25
2018-09-21T23:13:29.096Z,1.00
2018-09-21T23:18:32.577Z,1.00
2018-09-21T23:23:36.121Z,0.00
2018-09-21T23:28:39.558Z,1.00
2018-09-21T23:33:43.028Z,1.00
2018-09-21T23:38:46.510Z,1.00
2018-09-21T23:43:49.987Z,1.20
2018-09-21T23:48:53.470Z,1.00
2018-09-21T23:53:56.923Z,1.00
2018-09-21T23:59:00.372Z,1.00
